createdAt,value
2023-02-16T00:01:24.934Z,40.92
2023-02-16T00:03:53.273Z,41.70
2023-02-16T00:06:21.079Z,41.55
2023-02-16T00:08:50.470Z,40.70
2023-02-16T00:11:40.519Z,41.20
2023-02-16T00:14:10.364Z,39.33
2023-02-16T00:16:37.553Z,38.85
2023-02-16T00:19:18.501Z,38.10
2023-02-16T00:21:47.804Z,41.78
2023-02-16T00:24:17.131Z,38.90
2023-02-16T00:26:44.657Z,40.70
2023-02-16T00:29:20.124Z,42.05
2023-02-16T00:31:47.857Z,38.45
2023-02-16T00:34:38.117Z,41.90
2023-02-16T00:37:10.881Z,39.38
2023-02-16T00:39:39.351Z,37.85
2023-02-16T00:42:06.954Z,55.85
2023-02-16T00:44:34.173Z,52.75
2023-02-16T00:47:22.708Z,48.65
2023-02-16T00:49:52.144Z,65.75
2023-02-16T00:52:38.417Z,54.55
2023-02-16T00:55:09.196Z,45.85
2023-02-16T00:57:41.706Z,47.05
2023-02-16T01:00:09.363Z,51.60
2023-02-16T01:02:37.163Z,39.65
2023-02-16T01:05:04.524Z,46.05
2023-02-16T01:07:50.873Z,45.13
2023-02-16T01:10:38.336Z,43.05
2023-02-16T01:13:06.059Z,41.35
2023-02-16T01:15:33.119Z,45.38
2023-02-16T01:18:00.855Z,39.67
2023-02-16T01:20:28.598Z,39.90
2023-02-16T01:22:56.332Z,41.47
2023-02-16T01:25:23.839Z,39.83
2023-02-16T01:27:51.622Z,41.55
2023-02-16T01:30:23.293Z,44.63
2023-02-16T01:32:53.697Z,44.05
2023-02-16T01:35:29.060Z,45.28
2023-02-16T01:37:56.232Z,48.13
2023-02-16T01:40:35.611Z,43.75
2023-02-16T01:43:05.175Z,41.95
2023-02-16T01:45:38.347Z,42.35
2023-02-16T01:48:09.865Z,42.80
2023-02-16T01:51:06.004Z,39.40
2023-02-16T01:53:57.763Z,40.03
2023-02-16T01:56:46.232Z,40.78
2023-02-16T01:59:33.422Z,41.55
2023-02-16T02:02:06.146Z,44.53
2023-02-16T02:05:06.443Z,44.13
2023-02-16T02:07:36.197Z,44.38
2023-02-16T02:10:37.901Z,45.40
2023-02-16T02:13:11.416Z,43.35
2023-02-16T02:15:38.992Z,49.90
2023-02-16T02:18:06.245Z,47.53
2023-02-16T02:21:26.446Z,51.88
2023-02-16T02:24:05.456Z,46.35
2023-02-16T02:27:06.330Z,50.40
2023-02-16T02:29:45.896Z,45.72
2023-02-16T02:32:41.602Z,48.50
2023-02-16T02:35:08.940Z,50.58
2023-02-16T02:37:58.054Z,55.63
2023-02-16T02:40:54.561Z,50.33
2023-02-16T02:43:41.289Z,41.50
2023-02-16T02:46:18.397Z,49.22
2023-02-16T02:48:46.009Z,46.63
2023-02-16T02:51:30.530Z,45.08
2023-02-16T02:54:29.843Z,55.95
2023-02-16T02:57:19.153Z,50.78
2023-02-16T03:00:19.053Z,54.85
2023-02-16T03:02:49.253Z,48.08
2023-02-16T03:05:20.536Z,53.35
2023-02-16T03:07:53.901Z,42.10
2023-02-16T03:10:45.989Z,46.88
2023-02-16T03:13:18.761Z,53.20
2023-02-16T03:15:48.220Z,52.33
2023-02-16T03:18:38.311Z,52.42
2023-02-16T03:21:25.074Z,45.60
2023-02-16T03:24:10.659Z,48.40
2023-02-16T03:26:56.836Z,45.45
2023-02-16T03:29:26.047Z,48.83
2023-02-16T03:31:55.653Z,47.30
2023-02-16T03:34:23.547Z,46.47
2023-02-16T03:36:54.997Z,47.03
2023-02-16T03:39:21.867Z,43.95
2023-02-16T03:41:51.875Z,44.35
2023-02-16T03:44:18.775Z,42.72
2023-02-16T03:46:46.890Z,44.15
2023-02-16T03:49:13.613Z,47.25
2023-02-16T03:51:40.724Z,43.67
2023-02-16T03:54:07.987Z,46.00
2023-02-16T03:56:35.174Z,50.10
2023-02-16T03:59:02.688Z,49.47
2023-02-16T04:01:29.448Z,45.10
2023-02-16T04:03:56.571Z,45.85
2023-02-16T04:06:23.349Z,48.30
2023-02-16T04:08:51.459Z,49.15
2023-02-16T04:11:36.892Z,49.00
2023-02-16T04:14:04.019Z,44.10
2023-02-16T04:16:30.808Z,45.35
2023-02-16T04:18:58.018Z,44.78
2023-02-16T04:21:24.739Z,46.28
2023-02-16T04:23:51.862Z,41.10
2023-02-16T04:26:19.154Z,44.83
2023-02-16T04:28:46.015Z,44.03
2023-02-16T04:31:13.386Z,43.15
2023-02-16T04:33:40.202Z,44.85
2023-02-16T04:36:08.015Z,48.30
2023-02-16T04:38:34.800Z,45.28
2023-02-16T04:41:02.218Z,47.38
2023-02-16T04:43:29.617Z,49.20
2023-02-16T04:46:00.570Z,41.22
2023-02-16T04:48:27.901Z,43.42
2023-02-16T04:50:54.659Z,41.88
2023-02-16T04:53:21.796Z,41.70
2023-02-16T04:55:49.639Z,44.83
2023-02-16T04:58:18.280Z,45.92
2023-02-16T05:00:45.172Z,45.25
2023-02-16T05:03:11.904Z,45.33
2023-02-16T05:05:38.660Z,47.30
2023-02-16T05:08:05.862Z,43.50
2023-02-16T05:10:33.210Z,42.35
2023-02-16T05:13:18.442Z,43.58
2023-02-16T05:15:45.333Z,51.30
2023-02-16T05:18:12.693Z,48.60
2023-02-16T05:20:58.319Z,52.53
2023-02-16T05:23:25.527Z,44.70
2023-02-16T05:25:52.272Z,47.40
2023-02-16T05:28:19.047Z,47.30
2023-02-16T05:30:45.873Z,41.95
2023-02-16T05:33:13.151Z,46.40
2023-02-16T05:35:40.369Z,43.05
2023-02-16T05:38:07.652Z,43.35
2023-02-16T05:40:35.201Z,46.75
2023-02-16T05:43:02.699Z,48.17
2023-02-16T05:45:29.902Z,45.63
2023-02-16T05:47:57.458Z,45.30
2023-02-16T05:50:24.207Z,47.95
2023-02-16T05:52:51.835Z,43.13
2023-02-16T05:55:23.089Z,48.33
2023-02-16T05:57:49.869Z,46.47
2023-02-16T06:00:17.029Z,49.88
2023-02-16T06:02:43.971Z,47.42
2023-02-16T06:05:10.777Z,49.22
2023-02-16T06:07:37.585Z,53.75
2023-02-16T06:10:05.744Z,50.47
2023-02-16T06:12:34.571Z,56.38
2023-02-16T06:15:02.060Z,51.80
2023-02-16T06:17:28.880Z,52.15
2023-02-16T06:19:56.021Z,49.58
2023-02-16T06:22:22.811Z,50.05
2023-02-16T06:24:49.569Z,47.50
2023-02-16T06:27:16.716Z,50.63
2023-02-16T06:29:43.444Z,49.83
2023-02-16T06:32:10.822Z,57.97
2023-02-16T06:34:37.694Z,48.53
2023-02-16T06:37:04.984Z,45.75
2023-02-16T06:39:32.095Z,48.42
2023-02-16T06:41:58.872Z,44.28
2023-02-16T06:44:25.600Z,41.13
2023-02-16T06:46:52.396Z,43.17
2023-02-16T06:49:21.040Z,40.00
2023-02-16T06:51:49.442Z,41.47
2023-02-16T06:54:17.070Z,38.90
2023-02-16T06:56:45.140Z,40.70
2023-02-16T06:59:13.238Z,39.20
2023-02-16T07:01:40.365Z,39.75
2023-02-16T07:04:08.084Z,39.00
2023-02-16T07:06:35.132Z,36.97
2023-02-16T07:09:02.304Z,35.70
2023-02-16T07:11:29.778Z,34.72
2023-02-16T07:13:56.972Z,35.40
2023-02-16T07:16:24.016Z,40.05
2023-02-16T07:18:51.480Z,35.78
2023-02-16T07:21:18.655Z,35.05
2023-02-16T07:23:45.835Z,32.92
2023-02-16T07:26:12.645Z,33.17
2023-02-16T07:28:39.850Z,31.90
2023-02-16T07:31:08.885Z,28.90
2023-02-16T07:33:36.409Z,30.80
2023-02-16T07:36:03.802Z,26.13
2023-02-16T07:38:31.223Z,28.95
2023-02-16T07:40:58.901Z,28.38
2023-02-16T07:43:26.929Z,24.95
2023-02-16T07:45:54.211Z,23.38
2023-02-16T07:48:22.039Z,22.70
2023-02-16T07:50:48.809Z,23.00
2023-02-16T07:53:15.950Z,20.50
2023-02-16T07:55:44.299Z,21.77
2023-02-16T07:58:11.697Z,17.55
2023-02-16T08:00:38.562Z,18.30
2023-02-16T08:03:06.347Z,19.17
2023-02-16T08:05:34.528Z,19.00
2023-02-16T08:08:01.677Z,20.67
2023-02-16T08:10:28.451Z,20.42
2023-02-16T08:12:55.256Z,16.88
2023-02-16T08:15:22.107Z,17.17
2023-02-16T08:17:49.407Z,19.42
2023-02-16T08:20:16.162Z,22.15
2023-02-16T08:22:44.181Z,19.10
2023-02-16T08:25:12.519Z,19.95
2023-02-16T08:27:39.241Z,18.40
2023-02-16T08:30:10.431Z,17.88
2023-02-16T08:32:37.568Z,19.92
2023-02-16T08:35:04.898Z,18.23
2023-02-16T08:37:31.624Z,18.45
2023-02-16T08:40:00.826Z,18.55
2023-02-16T08:42:27.658Z,17.10
2023-02-16T08:44:55.011Z,19.60
2023-02-16T08:47:21.837Z,19.80
2023-02-16T08:49:48.583Z,21.65
2023-02-16T08:52:15.354Z,18.42
2023-02-16T08:54:42.758Z,18.35
2023-02-16T08:57:09.608Z,17.17
2023-02-16T08:59:36.826Z,19.48
2023-02-16T09:02:04.022Z,21.95
2023-02-16T09:04:31.244Z,19.10
2023-02-16T09:06:59.701Z,18.67
2023-02-16T09:09:27.677Z,17.75
2023-02-16T09:11:55.055Z,18.80
2023-02-16T09:14:23.402Z,18.15
2023-02-16T09:16:50.570Z,17.63
2023-02-16T09:19:21.133Z,20.35
2023-02-16T09:21:50.878Z,17.92
2023-02-16T09:24:18.248Z,18.20
2023-02-16T09:26:45.437Z,17.50
2023-02-16T09:29:16.487Z,18.35
2023-02-16T09:31:44.503Z,19.08
2023-02-16T09:34:26.798Z,18.50
2023-02-16T09:36:54.239Z,16.27
2023-02-16T09:39:22.011Z,18.10
2023-02-16T09:42:01.320Z,14.82
2023-02-16T09:44:43.869Z,16.27
2023-02-16T09:47:31.490Z,16.08
2023-02-16T09:50:04.250Z,16.23
2023-02-16T09:52:44.934Z,15.23
2023-02-16T09:55:18.064Z,15.18
2023-02-16T09:58:18.879Z,13.93
2023-02-16T10:00:53.823Z,16.88
2023-02-16T10:03:51.669Z,15.27
2023-02-16T10:06:36.156Z,15.07
2023-02-16T10:09:10.028Z,18.13
2023-02-16T10:11:46.609Z,20.27
2023-02-16T10:14:19.102Z,18.50
2023-02-16T10:17:03.870Z,14.77
2023-02-16T10:19:55.160Z,16.08
2023-02-16T10:22:33.455Z,15.07
2023-02-16T10:25:22.153Z,18.30
2023-02-16T10:27:58.266Z,16.95
2023-02-16T10:30:25.535Z,17.17
2023-02-16T10:33:13.093Z,15.52
2023-02-16T10:35:47.725Z,15.63
2023-02-16T10:38:28.761Z,17.08
2023-02-16T10:41:01.615Z,16.02
2023-02-16T10:43:31.472Z,15.45
2023-02-16T10:46:00.842Z,16.95
2023-02-16T10:48:27.950Z,15.98
2023-02-16T10:50:59.178Z,16.02
2023-02-16T10:53:32.241Z,14.52
2023-02-16T10:55:59.690Z,16.35
2023-02-16T10:58:34.040Z,17.77
2023-02-16T11:01:20.393Z,15.10
2023-02-16T11:03:50.863Z,15.18
2023-02-16T11:06:24.283Z,14.77
2023-02-16T11:08:55.390Z,14.50
2023-02-16T11:11:26.823Z,15.75
2023-02-16T11:14:09.659Z,14.63
2023-02-16T11:16:37.127Z,16.83
2023-02-16T11:19:13.224Z,14.75
2023-02-16T11:21:52.556Z,13.82
2023-02-16T11:24:29.566Z,12.93
2023-02-16T11:27:07.234Z,13.98
2023-02-16T11:29:34.905Z,12.95
2023-02-16T11:32:09.360Z,15.40
2023-02-16T11:34:37.847Z,15.05
2023-02-16T11:37:12.625Z,15.80
2023-02-16T11:39:41.892Z,14.88
2023-02-16T11:42:42.672Z,15.27
2023-02-16T11:45:24.373Z,14.00
2023-02-16T11:48:00.317Z,14.52
2023-02-16T11:50:38.690Z,14.57
2023-02-16T11:53:12.277Z,17.13
2023-02-16T11:55:43.221Z,14.95
2023-02-16T11:58:22.677Z,16.50
2023-02-16T12:01:11.673Z,15.55
2023-02-16T12:03:59.870Z,15.98
2023-02-16T12:06:44.412Z,17.45
2023-02-16T12:09:26.351Z,14.77
2023-02-16T12:11:59.162Z,15.43
2023-02-16T12:14:56.903Z,16.23
2023-02-16T12:17:32.554Z,15.68
2023-02-16T12:20:46.367Z,16.60
2023-02-16T12:23:24.053Z,18.20
2023-02-16T12:26:27.305Z,16.27
2023-02-16T12:29:29.284Z,17.80
2023-02-16T12:32:05.023Z,16.20
2023-02-16T12:34:49.222Z,15.32
2023-02-16T12:37:43.317Z,16.40
2023-02-16T12:40:52.565Z,18.33
2023-02-16T12:43:46.711Z,17.13
2023-02-16T12:46:33.930Z,17.38
2023-02-16T12:49:03.004Z,15.63
2023-02-16T12:51:54.069Z,17.60
2023-02-16T12:54:29.561Z,17.40
2023-02-16T12:57:10.923Z,19.25
2023-02-16T12:59:41.966Z,16.80
2023-02-16T13:02:36.206Z,17.95
2023-02-16T13:05:10.185Z,16.38
2023-02-16T13:07:49.224Z,18.98
2023-02-16T13:10:39.787Z,16.52
2023-02-16T13:13:14.650Z,16.92
2023-02-16T13:15:48.576Z,18.88
2023-02-16T13:18:28.571Z,17.95
2023-02-16T13:21:11.072Z,17.77
2023-02-16T13:24:03.399Z,18.45
2023-02-16T13:26:36.882Z,19.70
2023-02-16T13:29:17.625Z,15.20
2023-02-16T13:31:45.035Z,19.08
2023-02-16T13:34:34.163Z,17.48
2023-02-16T13:37:39.904Z,18.15
2023-02-16T13:40:15.433Z,18.15
2023-02-16T13:42:42.656Z,18.58
2023-02-16T13:45:23.062Z,19.25
2023-02-16T13:47:54.066Z,18.33
2023-02-16T13:50:22.109Z,19.50
2023-02-16T13:52:53.262Z,18.63
2023-02-16T13:55:33.435Z,21.85
2023-02-16T13:58:12.641Z,17.65
2023-02-16T14:00:47.977Z,16.23
2023-02-16T14:03:17.754Z,18.95
2023-02-16T14:05:46.619Z,19.05
2023-02-16T14:08:19.022Z,19.10
2023-02-16T14:10:55.306Z,19.35
2023-02-16T14:13:29.186Z,19.13
2023-02-16T14:15:58.862Z,16.40
2023-02-16T14:18:45.975Z,19.13
2023-02-16T14:21:26.763Z,19.58
2023-02-16T14:24:03.151Z,18.50
2023-02-16T14:26:32.409Z,18.38
2023-02-16T14:29:02.975Z,19.73
2023-02-16T14:31:33.304Z,21.20
2023-02-16T14:34:12.518Z,18.85
2023-02-16T14:37:11.720Z,17.67
2023-02-16T14:40:04.021Z,17.90
2023-02-16T14:42:33.520Z,15.77
2023-02-16T14:45:29.266Z,18.73
2023-02-16T14:48:27.289Z,19.52
2023-02-16T14:51:25.371Z,18.25
2023-02-16T14:54:18.057Z,17.17
2023-02-16T14:57:18.618Z,16.10
2023-02-16T14:59:52.493Z,17.98
2023-02-16T15:02:26.820Z,18.50
2023-02-16T15:04:53.833Z,17.38
2023-02-16T15:07:22.240Z,18.00
2023-02-16T15:09:57.567Z,20.15
2023-02-16T15:12:30.858Z,17.83
2023-02-16T15:15:04.571Z,18.98
2023-02-16T15:17:50.607Z,17.88
2023-02-16T15:20:38.553Z,17.63
2023-02-16T15:23:16.830Z,18.95
2023-02-16T15:25:55.728Z,18.20
2023-02-16T15:28:26.800Z,17.02
2023-02-16T15:31:25.971Z,18.13
2023-02-16T15:33:59.295Z,16.95
2023-02-16T15:36:38.158Z,16.80
2023-02-16T15:39:28.251Z,18.98
2023-02-16T15:42:23.689Z,19.35
2023-02-16T15:44:51.353Z,19.50
2023-02-16T15:47:24.230Z,18.75
2023-02-16T15:49:52.056Z,20.35
2023-02-16T15:52:27.161Z,20.65
2023-02-16T15:54:55.777Z,21.00
2023-02-16T15:57:31.105Z,19.70
2023-02-16T16:00:01.097Z,18.65
2023-02-16T16:02:41.604Z,20.42
2023-02-16T16:05:22.622Z,21.00
2023-02-16T16:07:50.041Z,22.95
2023-02-16T16:10:25.550Z,19.58
2023-02-16T16:12:57.206Z,20.92
2023-02-16T16:15:26.760Z,22.63
2023-02-16T16:17:54.971Z,23.27
2023-02-16T16:20:42.050Z,21.27
2023-02-16T16:23:17.637Z,22.00
2023-02-16T16:25:47.813Z,21.48
2023-02-16T16:28:33.675Z,24.05
2023-02-16T16:31:10.022Z,24.05
2023-02-16T16:33:55.639Z,21.60
2023-02-16T16:36:41.542Z,23.77
2023-02-16T16:39:10.760Z,23.10
2023-02-16T16:41:37.932Z,24.25
2023-02-16T16:44:05.217Z,26.25
2023-02-16T16:46:33.076Z,25.20
2023-02-16T16:49:04.490Z,27.25
2023-02-16T16:51:31.721Z,29.00
2023-02-16T16:54:02.301Z,26.17
2023-02-16T16:56:30.851Z,28.80
2023-02-16T16:58:59.016Z,26.70
2023-02-16T17:01:28.632Z,26.40
2023-02-16T17:03:55.972Z,28.33
2023-02-16T17:06:24.395Z,24.98
2023-02-16T17:08:51.926Z,26.00
2023-02-16T17:11:38.190Z,25.35
2023-02-16T17:14:10.874Z,25.98
2023-02-16T17:16:42.275Z,25.83
2023-02-16T17:19:13.147Z,24.17
2023-02-16T17:21:40.037Z,27.77
2023-02-16T17:24:13.104Z,27.92
2023-02-16T17:26:41.171Z,27.40
2023-02-16T17:29:08.436Z,26.15
2023-02-16T17:31:36.170Z,28.02
2023-02-16T17:34:02.977Z,27.98
2023-02-16T17:36:29.783Z,28.02
2023-02-16T17:38:56.590Z,29.75
2023-02-16T17:41:26.448Z,25.40
2023-02-16T17:43:53.408Z,28.40
2023-02-16T17:46:21.806Z,27.85
2023-02-16T17:48:55.358Z,26.73
2023-02-16T17:51:24.189Z,26.70
2023-02-16T17:53:51.512Z,28.75
2023-02-16T17:56:21.429Z,30.45
2023-02-16T17:58:48.462Z,28.13
2023-02-16T18:01:16.992Z,29.05
2023-02-16T18:03:43.905Z,26.92
2023-02-16T18:06:19.290Z,29.75
2023-02-16T18:08:46.726Z,26.38
2023-02-16T18:11:15.456Z,30.27
2023-02-16T18:13:42.755Z,32.10
2023-02-16T18:16:15.380Z,29.02
2023-02-16T18:18:42.213Z,29.52
2023-02-16T18:21:09.573Z,31.40
2023-02-16T18:23:36.454Z,29.70
2023-02-16T18:26:04.322Z,28.77
2023-02-16T18:28:34.715Z,31.25
2023-02-16T18:31:02.045Z,28.40
2023-02-16T18:33:29.282Z,32.58
2023-02-16T18:36:00.135Z,31.35
2023-02-16T18:38:27.711Z,31.48
2023-02-16T18:40:55.254Z,27.67
2023-02-16T18:43:24.689Z,33.03
2023-02-16T18:45:51.722Z,31.33
2023-02-16T18:48:18.520Z,34.22
2023-02-16T18:50:45.581Z,33.55
2023-02-16T18:53:12.973Z,33.10
2023-02-16T18:55:40.186Z,30.98
2023-02-16T18:58:08.576Z,28.23
2023-02-16T19:00:36.984Z,31.23
2023-02-16T19:03:04.307Z,30.20
2023-02-16T19:05:32.046Z,31.10
2023-02-16T19:08:01.498Z,29.10
2023-02-16T19:10:28.723Z,31.35
2023-02-16T19:12:55.480Z,29.75
2023-02-16T19:15:22.242Z,27.05
2023-02-16T19:17:49.580Z,30.90
2023-02-16T19:20:18.579Z,28.70
2023-02-16T19:22:48.784Z,27.58
2023-02-16T19:25:15.609Z,31.45
2023-02-16T19:27:43.586Z,29.00
2023-02-16T19:30:12.377Z,27.92
2023-02-16T19:32:41.254Z,30.20
2023-02-16T19:35:12.597Z,28.75
2023-02-16T19:37:39.749Z,30.73
2023-02-16T19:40:10.045Z,32.72
2023-02-16T19:42:38.561Z,30.20
2023-02-16T19:45:05.743Z,28.15
2023-02-16T19:47:33.003Z,31.05
2023-02-16T19:50:00.275Z,29.77
2023-02-16T19:52:27.497Z,28.55
2023-02-16T19:54:54.530Z,30.67
2023-02-16T19:57:21.870Z,31.17
2023-02-16T19:59:51.341Z,29.13
2023-02-16T20:02:18.174Z,30.77
2023-02-16T20:04:45.763Z,29.48
2023-02-16T20:07:13.012Z,31.98
2023-02-16T20:09:41.259Z,30.30
2023-02-16T20:12:08.169Z,30.02
2023-02-16T20:14:35.302Z,27.98
2023-02-16T20:17:02.089Z,29.33
2023-02-16T20:19:29.260Z,28.67
2023-02-16T20:21:56.037Z,28.65
2023-02-16T20:24:22.835Z,26.45
2023-02-16T20:26:52.454Z,30.75
2023-02-16T20:29:23.572Z,28.73
2023-02-16T20:31:54.461Z,27.75
2023-02-16T20:34:22.266Z,31.38
2023-02-16T20:36:49.591Z,27.52
2023-02-16T20:39:16.551Z,27.77
2023-02-16T20:41:43.889Z,28.23
2023-02-16T20:44:13.840Z,27.83
2023-02-16T20:46:42.186Z,27.42
2023-02-16T20:49:09.667Z,28.23
2023-02-16T20:51:37.533Z,25.98
2023-02-16T20:54:05.537Z,26.98
2023-02-16T20:56:32.771Z,24.33
2023-02-16T20:59:00.082Z,25.85
2023-02-16T21:01:34.150Z,28.08
2023-02-16T21:04:01.593Z,23.48
2023-02-16T21:06:28.703Z,24.70
2023-02-16T21:08:56.478Z,25.70
2023-02-16T21:11:24.552Z,26.45
2023-02-16T21:13:52.342Z,24.00
2023-02-16T21:16:19.392Z,25.13
2023-02-16T21:18:46.243Z,22.38
2023-02-16T21:21:15.789Z,27.67
2023-02-16T21:23:52.117Z,23.90
2023-02-16T21:26:21.694Z,23.05
2023-02-16T21:28:49.004Z,22.58
2023-02-16T21:31:18.785Z,22.95
2023-02-16T21:33:45.996Z,22.88
2023-02-16T21:36:20.021Z,23.23
2023-02-16T21:38:46.888Z,21.73
2023-02-16T21:41:25.987Z,24.20
2023-02-16T21:44:14.061Z,22.67
2023-02-16T21:46:46.191Z,21.38
2023-02-16T21:49:17.222Z,22.50
2023-02-16T21:51:45.187Z,22.25
2023-02-16T21:54:15.211Z,25.42
2023-02-16T21:56:43.261Z,20.65
2023-02-16T21:59:14.219Z,24.73
2023-02-16T22:01:44.427Z,21.48
2023-02-16T22:04:14.454Z,22.63
2023-02-16T22:06:44.085Z,23.65
2023-02-16T22:09:17.948Z,20.70
2023-02-16T22:11:45.640Z,22.67
2023-02-16T22:14:12.674Z,22.25
2023-02-16T22:16:40.205Z,22.75
2023-02-16T22:19:11.102Z,22.63
2023-02-16T22:21:41.139Z,21.15
2023-02-16T22:24:08.902Z,20.95
2023-02-16T22:26:36.598Z,22.13
2023-02-16T22:29:05.696Z,19.27
2023-02-16T22:31:32.719Z,21.90
2023-02-16T22:34:02.048Z,24.02
2023-02-16T22:36:30.106Z,22.85
2023-02-16T22:38:57.228Z,20.95
2023-02-16T22:41:24.804Z,20.10
2023-02-16T22:43:55.908Z,18.05
2023-02-16T22:46:24.733Z,19.60
2023-02-16T22:48:52.782Z,19.25
2023-02-16T22:51:20.954Z,20.13
2023-02-16T22:53:48.356Z,21.27
2023-02-16T22:56:18.234Z,25.15
2023-02-16T22:58:46.008Z,20.08
2023-02-16T23:01:15.856Z,19.00
2023-02-16T23:03:43.062Z,20.73
2023-02-16T23:06:15.087Z,16.80
2023-02-16T23:08:42.754Z,18.08
2023-02-16T23:11:09.925Z,20.27
2023-02-16T23:13:37.115Z,18.98
2023-02-16T23:16:11.112Z,17.98
2023-02-16T23:18:38.033Z,22.65
2023-02-16T23:21:19.718Z,18.08
2023-02-16T23:23:47.867Z,19.50
2023-02-16T23:26:15.221Z,19.05
2023-02-16T23:28:43.431Z,20.77
2023-02-16T23:31:15.547Z,20.15
2023-02-16T23:33:42.509Z,19.33
2023-02-16T23:36:10.675Z,21.42
2023-02-16T23:38:37.722Z,19.02
2023-02-16T23:41:07.921Z,19.00
2023-02-16T23:43:35.516Z,19.98
2023-02-16T23:46:03.565Z,21.42
2023-02-16T23:48:30.922Z,18.50
2023-02-16T23:50:58.380Z,19.70
2023-02-16T23:53:27.133Z,18.23
2023-02-16T23:56:08.480Z,22.55
2023-02-16T23:58:45.152Z,21.05
